sensor_id;sensor_type;location;lat;lon;timestamp;temperature;humidity
9223;DHT22;7557;51.698;3.942;2023-05-25T00:01:41;13.70;99.90
9223;DHT22;7557;51.698;3.942;2023-05-25T00:04:13;13.70;99.90
9223;DHT22;7557;51.698;3.942;2023-05-25T00:06:43;13.70;99.90
9223;DHT22;7557;51.698;3.942;2023-05-25T00:09:12;13.70;99.90
9223;DHT22;7557;51.698;3.942;2023-05-25T00:11:39;13.70;99.90
9223;DHT22;7557;51.698;3.942;2023-05-25T00:14:06;13.70;99.90
9223;DHT22;7557;51.698;3.942;2023-05-25T00:16:34;13.70;99.90
9223;DHT22;7557;51.698;3.942;2023-05-25T00:19:05;13.60;99.90
9223;DHT22;7557;51.698;3.942;2023-05-25T00:21:35;13.60;99.90
9223;DHT22;7557;51.698;3.942;2023-05-25T00:24:04;13.60;99.90
9223;DHT22;7557;51.698;3.942;2023-05-25T00:26:32;13.60;99.90
9223;DHT22;7557;51.698;3.942;2023-05-25T00:28:59;13.60;99.90
9223;DHT22;7557;51.698;3.942;2023-05-25T00:31:27;13.60;99.90
9223;DHT22;7557;51.698;3.942;2023-05-25T00:33:54;13.70;99.90
9223;DHT22;7557;51.698;3.942;2023-05-25T00:36:21;13.70;99.90
9223;DHT22;7557;51.698;3.942;2023-05-25T00:38:48;13.70;99.90
9223;DHT22;7557;51.698;3.942;2023-05-25T00:41:17;13.70;99.90
9223;DHT22;7557;51.698;3.942;2023-05-25T00:43:46;13.60;99.90
9223;DHT22;7557;51.698;3.942;2023-05-25T00:46:14;13.50;99.90
9223;DHT22;7557;51.698;3.942;2023-05-25T00:48:42;13.50;99.90
9223;DHT22;7557;51.698;3.942;2023-05-25T00:51:10;13.50;99.90
9223;DHT22;7557;51.698;3.942;2023-05-25T00:53:40;13.50;99.90
9223;DHT22;7557;51.698;3.942;2023-05-25T00:56:11;13.50;99.90
9223;DHT22;7557;51.698;3.942;2023-05-25T00:58:42;13.50;99.90
9223;DHT22;7557;51.698;3.942;2023-05-25T01:01:12;13.50;99.90
9223;DHT22;7557;51.698;3.942;2023-05-25T01:03:43;13.50;99.90
9223;DHT22;7557;51.698;3.942;2023-05-25T01:06:14;13.50;99.90
9223;DHT22;7557;51.698;3.942;2023-05-25T01:08:46;13.60;99.90
9223;DHT22;7557;51.698;3.942;2023-05-25T01:11:16;13.60;99.90
9223;DHT22;7557;51.698;3.942;2023-05-25T01:13:48;13.60;99.90
9223;DHT22;7557;51.698;3.942;2023-05-25T01:16:16;13.70;99.90
9223;DHT22;7557;51.698;3.942;2023-05-25T01:18:43;13.70;99.90
9223;DHT22;7557;51.698;3.942;2023-05-25T01:21:18;13.70;99.90
9223;DHT22;7557;51.698;3.942;2023-05-25T01:23:54;13.50;99.90
9223;DHT22;7557;51.698;3.942;2023-05-25T01:26:25;13.50;99.90
9223;DHT22;7557;51.698;3.942;2023-05-25T01:28:54;13.50;99.90
9223;DHT22;7557;51.698;3.942;2023-05-25T01:31:23;13.40;99.90
9223;DHT22;7557;51.698;3.942;2023-05-25T01:33:51;13.50;99.90
9223;DHT22;7557;51.698;3.942;2023-05-25T01:36:21;13.60;99.90
9223;DHT22;7557;51.698;3.942;2023-05-25T01:38:48;13.60;99.90
9223;DHT22;7557;51.698;3.942;2023-05-25T01:41:15;13.70;99.90
9223;DHT22;7557;51.698;3.942;2023-05-25T01:43:43;13.60;99.90
9223;DHT22;7557;51.698;3.942;2023-05-25T01:46:15;13.60;99.90
9223;DHT22;7557;51.698;3.942;2023-05-25T01:48:51;13.70;99.90
9223;DHT22;7557;51.698;3.942;2023-05-25T01:51:28;13.70;99.90
9223;DHT22;7557;51.698;3.942;2023-05-25T01:54:02;13.70;99.90
9223;DHT22;7557;51.698;3.942;2023-05-25T01:56:31;13.70;99.90
9223;DHT22;7557;51.698;3.942;2023-05-25T01:59:00;13.70;99.90
9223;DHT22;7557;51.698;3.942;2023-05-25T02:01:29;13.60;99.90
9223;DHT22;7557;51.698;3.942;2023-05-25T02:03:57;13.50;99.90
9223;DHT22;7557;51.698;3.942;2023-05-25T02:06:26;13.50;99.90
9223;DHT22;7557;51.698;3.942;2023-05-25T02:08:54;13.40;99.90
9223;DHT22;7557;51.698;3.942;2023-05-25T02:11:21;13.40;99.90
9223;DHT22;7557;51.698;3.942;2023-05-25T02:13:48;13.30;99.90
9223;DHT22;7557;51.698;3.942;2023-05-25T02:16:15;13.20;99.90
9223;DHT22;7557;51.698;3.942;2023-05-25T02:18:43;13.20;99.90
9223;DHT22;7557;51.698;3.942;2023-05-25T02:21:10;13.20;99.90
9223;DHT22;7557;51.698;3.942;2023-05-25T02:23:39;13.20;99.90
9223;DHT22;7557;51.698;3.942;2023-05-25T02:26:06;13.20;99.90
9223;DHT22;7557;51.698;3.942;2023-05-25T02:28:33;13.30;99.90
9223;DHT22;7557;51.698;3.942;2023-05-25T02:31:01;13.30;99.90
9223;DHT22;7557;51.698;3.942;2023-05-25T02:33:28;13.40;99.90
9223;DHT22;7557;51.698;3.942;2023-05-25T02:35:55;13.40;99.90
9223;DHT22;7557;51.698;3.942;2023-05-25T02:38:22;13.40;99.90
9223;DHT22;7557;51.698;3.942;2023-05-25T02:40:51;13.30;99.90
9223;DHT22;7557;51.698;3.942;2023-05-25T02:43:18;13.20;99.90
9223;DHT22;7557;51.698;3.942;2023-05-25T02:45:46;13.20;99.90
9223;DHT22;7557;51.698;3.942;2023-05-25T02:48:13;13.20;99.90
9223;DHT22;7557;51.698;3.942;2023-05-25T02:50:40;13.30;99.90
9223;DHT22;7557;51.698;3.942;2023-05-25T02:53:07;13.30;99.90
9223;DHT22;7557;51.698;3.942;2023-05-25T02:55:35;13.40;99.90
9223;DHT22;7557;51.698;3.942;2023-05-25T02:58:06;13.40;99.90
9223;DHT22;7557;51.698;3.942;2023-05-25T03:00:33;13.30;99.90
9223;DHT22;7557;51.698;3.942;2023-05-25T03:03:00;13.30;99.90
9223;DHT22;7557;51.698;3.942;2023-05-25T03:05:28;13.20;99.90
9223;DHT22;7557;51.698;3.942;2023-05-25T03:07:55;13.20;99.90
9223;DHT22;7557;51.698;3.942;2023-05-25T03:10:22;13.20;99.90
9223;DHT22;7557;51.698;3.942;2023-05-25T03:12:49;13.20;99.90
9223;DHT22;7557;51.698;3.942;2023-05-25T03:15:18;13.20;99.90
9223;DHT22;7557;51.698;3.942;2023-05-25T03:17:45;13.20;99.90
9223;DHT22;7557;51.698;3.942;2023-05-25T03:20:13;13.10;99.90
9223;DHT22;7557;51.698;3.942;2023-05-25T03:22:40;13.20;99.90
9223;DHT22;7557;51.698;3.942;2023-05-25T03:25:08;13.20;99.90
9223;DHT22;7557;51.698;3.942;2023-05-25T03:27:37;13.20;99.90
9223;DHT22;7557;51.698;3.942;2023-05-25T03:30:05;13.20;99.90
9223;DHT22;7557;51.698;3.942;2023-05-25T03:32:35;13.10;99.90
9223;DHT22;7557;51.698;3.942;2023-05-25T03:35:03;13.10;99.90
9223;DHT22;7557;51.698;3.942;2023-05-25T03:37:30;13.10;99.90
9223;DHT22;7557;51.698;3.942;2023-05-25T03:39:58;13.10;99.90
9223;DHT22;7557;51.698;3.942;2023-05-25T03:42:26;13.20;99.90
9223;DHT22;7557;51.698;3.942;2023-05-25T03:44:54;13.30;99.90
9223;DHT22;7557;51.698;3.942;2023-05-25T03:47:21;13.30;99.90
9223;DHT22;7557;51.698;3.942;2023-05-25T03:49:50;13.40;99.90
9223;DHT22;7557;51.698;3.942;2023-05-25T03:52:18;13.40;99.90
9223;DHT22;7557;51.698;3.942;2023-05-25T03:54:46;13.40;99.90
9223;DHT22;7557;51.698;3.942;2023-05-25T03:57:13;13.30;99.90
9223;DHT22;7557;51.698;3.942;2023-05-25T03:59:41;13.30;99.90
9223;DHT22;7557;51.698;3.942;2023-05-25T04:02:08;13.20;99.90
9223;DHT22;7557;51.698;3.942;2023-05-25T04:04:39;13.20;99.90
9223;DHT22;7557;51.698;3.942;2023-05-25T04:07:08;13.20;99.90
9223;DHT22;7557;51.698;3.942;2023-05-25T04:09:36;13.20;99.90
9223;DHT22;7557;51.698;3.942;2023-05-25T04:12:04;13.10;99.90
9223;DHT22;7557;51.698;3.942;2023-05-25T04:14:31;13.20;99.90
9223;DHT22;7557;51.698;3.942;2023-05-25T04:16:59;13.20;99.90
9223;DHT22;7557;51.698;3.942;2023-05-25T04:19:26;13.20;99.90
9223;DHT22;7557;51.698;3.942;2023-05-25T04:21:54;13.20;99.90
9223;DHT22;7557;51.698;3.942;2023-05-25T04:24:23;13.10;99.90
9223;DHT22;7557;51.698;3.942;2023-05-25T04:26:50;13.10;99.90
9223;DHT22;7557;51.698;3.942;2023-05-25T04:29:19;12.90;99.90
9223;DHT22;7557;51.698;3.942;2023-05-25T04:31:46;12.90;99.90
9223;DHT22;7557;51.698;3.942;2023-05-25T04:34:14;13.00;99.90
9223;DHT22;7557;51.698;3.942;2023-05-25T04:36:41;13.00;99.90
9223;DHT22;7557;51.698;3.942;2023-05-25T04:39:09;13.10;99.90
9223;DHT22;7557;51.698;3.942;2023-05-25T04:41:39;13.20;99.90
9223;DHT22;7557;51.698;3.942;2023-05-25T04:44:07;13.20;99.90
9223;DHT22;7557;51.698;3.942;2023-05-25T04:46:35;13.20;99.90
9223;DHT22;7557;51.698;3.942;2023-05-25T04:49:05;13.20;99.90
9223;DHT22;7557;51.698;3.942;2023-05-25T04:51:34;13.20;99.90
9223;DHT22;7557;51.698;3.942;2023-05-25T04:54:02;13.20;99.90
9223;DHT22;7557;51.698;3.942;2023-05-25T04:56:30;13.10;99.90
9223;DHT22;7557;51.698;3.942;2023-05-25T04:59:00;13.20;99.90
9223;DHT22;7557;51.698;3.942;2023-05-25T05:01:29;13.30;99.90
9223;DHT22;7557;51.698;3.942;2023-05-25T05:03:58;13.40;99.90
9223;DHT22;7557;51.698;3.942;2023-05-25T05:06:26;13.50;99.90
9223;DHT22;7557;51.698;3.942;2023-05-25T05:08:53;13.60;99.90
9223;DHT22;7557;51.698;3.942;2023-05-25T05:11:21;13.70;99.90
9223;DHT22;7557;51.698;3.942;2023-05-25T05:13:48;13.80;99.90
9223;DHT22;7557;51.698;3.942;2023-05-25T05:16:17;14.00;99.90
9223;DHT22;7557;51.698;3.942;2023-05-25T05:18:45;14.10;99.90
9223;DHT22;7557;51.698;3.942;2023-05-25T05:21:12;14.20;99.90
9223;DHT22;7557;51.698;3.942;2023-05-25T05:23:41;14.30;99.90
9223;DHT22;7557;51.698;3.942;2023-05-25T05:26:08;14.50;99.90
9223;DHT22;7557;51.698;3.942;2023-05-25T05:28:36;14.60;99.90
9223;DHT22;7557;51.698;3.942;2023-05-25T05:31:04;14.60;99.90
9223;DHT22;7557;51.698;3.942;2023-05-25T05:33:33;14.70;99.90
9223;DHT22;7557;51.698;3.942;2023-05-25T05:36:00;14.70;99.90
9223;DHT22;7557;51.698;3.942;2023-05-25T05:38:29;14.70;99.90
9223;DHT22;7557;51.698;3.942;2023-05-25T05:40:57;14.80;99.90
9223;DHT22;7557;51.698;3.942;2023-05-25T05:43:24;14.80;99.90
9223;DHT22;7557;51.698;3.942;2023-05-25T05:45:52;15.00;99.90
9223;DHT22;7557;51.698;3.942;2023-05-25T05:48:19;15.30;99.90
9223;DHT22;7557;51.698;3.942;2023-05-25T05:50:48;15.30;99.90
9223;DHT22;7557;51.698;3.942;2023-05-25T05:53:17;15.30;99.90
9223;DHT22;7557;51.698;3.942;2023-05-25T05:55:44;15.30;99.90
9223;DHT22;7557;51.698;3.942;2023-05-25T05:58:12;15.30;99.90
9223;DHT22;7557;51.698;3.942;2023-05-25T06:00:42;15.50;99.90
9223;DHT22;7557;51.698;3.942;2023-05-25T06:03:10;15.60;99.90
9223;DHT22;7557;51.698;3.942;2023-05-25T06:05:37;15.60;99.90
9223;DHT22;7557;51.698;3.942;2023-05-25T06:08:06;15.50;99.90
9223;DHT22;7557;51.698;3.942;2023-05-25T06:10:35;15.60;99.90
9223;DHT22;7557;51.698;3.942;2023-05-25T06:13:02;15.70;99.90
9223;DHT22;7557;51.698;3.942;2023-05-25T06:15:32;15.70;99.90
9223;DHT22;7557;51.698;3.942;2023-05-25T06:17:59;15.90;99.90
9223;DHT22;7557;51.698;3.942;2023-05-25T06:20:27;16.00;99.90
9223;DHT22;7557;51.698;3.942;2023-05-25T06:22:54;16.00;99.90
9223;DHT22;7557;51.698;3.942;2023-05-25T06:25:24;16.00;99.90
9223;DHT22;7557;51.698;3.942;2023-05-25T06:27:52;16.00;99.90
9223;DHT22;7557;51.698;3.942;2023-05-25T06:30:19;16.10;99.90
9223;DHT22;7557;51.698;3.942;2023-05-25T06:32:47;16.30;99.90
9223;DHT22;7557;51.698;3.942;2023-05-25T06:35:14;16.50;99.90
9223;DHT22;7557;51.698;3.942;2023-05-25T06:37:45;16.50;99.90
9223;DHT22;7557;51.698;3.942;2023-05-25T06:40:14;16.60;99.90
9223;DHT22;7557;51.698;3.942;2023-05-25T06:42:43;16.70;99.90
9223;DHT22;7557;51.698;3.942;2023-05-25T06:45:10;16.90;99.90
9223;DHT22;7557;51.698;3.942;2023-05-25T06:47:38;17.10;99.90
9223;DHT22;7557;51.698;3.942;2023-05-25T06:50:07;17.20;99.90
9223;DHT22;7557;51.698;3.942;2023-05-25T06:52:34;17.30;99.90
9223;DHT22;7557;51.698;3.942;2023-05-25T06:55:02;17.20;99.90
9223;DHT22;7557;51.698;3.942;2023-05-25T06:57:30;17.30;99.90
9223;DHT22;7557;51.698;3.942;2023-05-25T06:59:59;17.40;99.90
9223;DHT22;7557;51.698;3.942;2023-05-25T07:02:26;17.70;99.90
9223;DHT22;7557;51.698;3.942;2023-05-25T07:04:54;17.80;99.90
9223;DHT22;7557;51.698;3.942;2023-05-25T07:07:22;18.10;99.90
9223;DHT22;7557;51.698;3.942;2023-05-25T07:09:49;18.10;99.90
9223;DHT22;7557;51.698;3.942;2023-05-25T07:12:16;18.30;99.90
9223;DHT22;7557;51.698;3.942;2023-05-25T07:14:44;18.20;99.90
9223;DHT22;7557;51.698;3.942;2023-05-25T07:17:15;18.10;99.90
9223;DHT22;7557;51.698;3.942;2023-05-25T07:19:42;17.90;99.90
9223;DHT22;7557;51.698;3.942;2023-05-25T07:22:10;18.00;99.90
9223;DHT22;7557;51.698;3.942;2023-05-25T07:24:37;18.20;99.90
9223;DHT22;7557;51.698;3.942;2023-05-25T07:27:05;18.10;99.90
9223;DHT22;7557;51.698;3.942;2023-05-25T07:29:33;17.90;99.90
9223;DHT22;7557;51.698;3.942;2023-05-25T07:32:00;17.90;99.90
9223;DHT22;7557;51.698;3.942;2023-05-25T07:34:29;17.70;99.90
9223;DHT22;7557;51.698;3.942;2023-05-25T07:36:57;17.50;99.90
9223;DHT22;7557;51.698;3.942;2023-05-25T07:39:25;17.40;99.90
9223;DHT22;7557;51.698;3.942;2023-05-25T07:41:53;17.30;99.90
9223;DHT22;7557;51.698;3.942;2023-05-25T07:44:21;17.30;99.90
9223;DHT22;7557;51.698;3.942;2023-05-25T07:46:48;17.40;99.90
9223;DHT22;7557;51.698;3.942;2023-05-25T07:49:16;17.50;99.90
9223;DHT22;7557;51.698;3.942;2023-05-25T07:51:45;17.60;99.90
9223;DHT22;7557;51.698;3.942;2023-05-25T07:54:15;17.50;99.90
9223;DHT22;7557;51.698;3.942;2023-05-25T07:56:43;17.40;99.90
9223;DHT22;7557;51.698;3.942;2023-05-25T07:59:10;17.30;99.90
9223;DHT22;7557;51.698;3.942;2023-05-25T08:01:39;17.20;99.90
9223;DHT22;7557;51.698;3.942;2023-05-25T08:04:06;17.20;99.90
9223;DHT22;7557;51.698;3.942;2023-05-25T08:06:34;17.20;99.90
9223;DHT22;7557;51.698;3.942;2023-05-25T08:09:04;17.30;99.90
9223;DHT22;7557;51.698;3.942;2023-05-25T08:11:32;17.20;99.90
9223;DHT22;7557;51.698;3.942;2023-05-25T08:14:00;17.00;99.90
9223;DHT22;7557;51.698;3.942;2023-05-25T08:16:28;17.10;99.90
9223;DHT22;7557;51.698;3.942;2023-05-25T08:18:55;17.30;99.90
9223;DHT22;7557;51.698;3.942;2023-05-25T08:21:24;17.50;99.90
9223;DHT22;7557;51.698;3.942;2023-05-25T08:23:52;17.70;99.90
9223;DHT22;7557;51.698;3.942;2023-05-25T08:26:21;17.80;99.90
9223;DHT22;7557;51.698;3.942;2023-05-25T08:28:48;17.90;99.90
9223;DHT22;7557;51.698;3.942;2023-05-25T08:31:16;17.90;99.90
9223;DHT22;7557;51.698;3.942;2023-05-25T08:33:43;17.90;99.90
9223;DHT22;7557;51.698;3.942;2023-05-25T08:36:11;18.00;99.90
9223;DHT22;7557;51.698;3.942;2023-05-25T08:38:38;18.30;99.90
9223;DHT22;7557;51.698;3.942;2023-05-25T08:41:06;18.30;99.90
9223;DHT22;7557;51.698;3.942;2023-05-25T08:43:35;18.40;99.90
9223;DHT22;7557;51.698;3.942;2023-05-25T08:46:04;18.50;99.90
9223;DHT22;7557;51.698;3.942;2023-05-25T08:48:32;18.40;99.90
9223;DHT22;7557;51.698;3.942;2023-05-25T08:51:04;18.10;99.90
9223;DHT22;7557;51.698;3.942;2023-05-25T08:53:35;18.00;99.90
9223;DHT22;7557;51.698;3.942;2023-05-25T08:56:09;18.10;99.90
9223;DHT22;7557;51.698;3.942;2023-05-25T08:58:41;18.20;99.90
9223;DHT22;7557;51.698;3.942;2023-05-25T09:01:14;18.30;99.90
9223;DHT22;7557;51.698;3.942;2023-05-25T09:03:43;18.40;99.90
9223;DHT22;7557;51.698;3.942;2023-05-25T09:06:11;18.50;99.90
9223;DHT22;7557;51.698;3.942;2023-05-25T09:08:39;18.50;99.90
9223;DHT22;7557;51.698;3.942;2023-05-25T09:11:08;18.50;99.90
9223;DHT22;7557;51.698;3.942;2023-05-25T09:13:35;18.60;99.90
9223;DHT22;7557;51.698;3.942;2023-05-25T09:16:05;18.40;99.90
9223;DHT22;7557;51.698;3.942;2023-05-25T09:18:33;18.30;99.90
9223;DHT22;7557;51.698;3.942;2023-05-25T09:21:01;18.30;99.90
9223;DHT22;7557;51.698;3.942;2023-05-25T09:23:29;18.30;99.90
9223;DHT22;7557;51.698;3.942;2023-05-25T09:25:57;18.40;99.90
9223;DHT22;7557;51.698;3.942;2023-05-25T09:28:24;18.50;99.90
9223;DHT22;7557;51.698;3.942;2023-05-25T09:30:52;18.20;99.90
9223;DHT22;7557;51.698;3.942;2023-05-25T09:33:22;18.00;99.90
9223;DHT22;7557;51.698;3.942;2023-05-25T09:35:50;17.70;99.90
9223;DHT22;7557;51.698;3.942;2023-05-25T09:38:18;17.60;99.90
9223;DHT22;7557;51.698;3.942;2023-05-25T09:40:47;17.60;99.90
9223;DHT22;7557;51.698;3.942;2023-05-25T09:43:15;17.80;99.90
9223;DHT22;7557;51.698;3.942;2023-05-25T09:45:43;17.80;99.90
9223;DHT22;7557;51.698;3.942;2023-05-25T09:48:10;17.80;99.90
9223;DHT22;7557;51.698;3.942;2023-05-25T09:50:40;17.90;99.90
9223;DHT22;7557;51.698;3.942;2023-05-25T09:53:08;18.10;99.90
9223;DHT22;7557;51.698;3.942;2023-05-25T09:55:36;18.30;99.90
9223;DHT22;7557;51.698;3.942;2023-05-25T09:58:04;18.50;99.90
9223;DHT22;7557;51.698;3.942;2023-05-25T10:00:35;18.70;99.90
9223;DHT22;7557;51.698;3.942;2023-05-25T10:03:05;18.70;99.90
9223;DHT22;7557;51.698;3.942;2023-05-25T10:05:32;18.80;99.90
9223;DHT22;7557;51.698;3.942;2023-05-25T10:08:02;18.90;99.90
9223;DHT22;7557;51.698;3.942;2023-05-25T10:10:30;19.00;99.90
9223;DHT22;7557;51.698;3.942;2023-05-25T10:12:59;18.80;99.90
9223;DHT22;7557;51.698;3.942;2023-05-25T10:15:27;18.50;99.90
9223;DHT22;7557;51.698;3.942;2023-05-25T10:17:57;18.20;99.90
9223;DHT22;7557;51.698;3.942;2023-05-25T10:20:28;17.90;99.90
9223;DHT22;7557;51.698;3.942;2023-05-25T10:23:03;17.80;99.90
9223;DHT22;7557;51.698;3.942;2023-05-25T10:25:33;17.60;99.90
9223;DHT22;7557;51.698;3.942;2023-05-25T10:28:08;17.30;99.90
9223;DHT22;7557;51.698;3.942;2023-05-25T10:30:38;17.20;99.90
9223;DHT22;7557;51.698;3.942;2023-05-25T10:33:07;17.00;99.90
9223;DHT22;7557;51.698;3.942;2023-05-25T10:35:38;16.90;99.90
9223;DHT22;7557;51.698;3.942;2023-05-25T10:38:07;16.80;99.90
9223;DHT22;7557;51.698;3.942;2023-05-25T10:40:35;16.70;99.90
9223;DHT22;7557;51.698;3.942;2023-05-25T10:43:05;16.60;99.90
9223;DHT22;7557;51.698;3.942;2023-05-25T10:45:33;16.60;99.90
9223;DHT22;7557;51.698;3.942;2023-05-25T10:48:01;16.60;99.90
9223;DHT22;7557;51.698;3.942;2023-05-25T10:50:34;16.80;99.90
9223;DHT22;7557;51.698;3.942;2023-05-25T10:53:04;16.90;99.90
9223;DHT22;7557;51.698;3.942;2023-05-25T10:55:43;16.90;99.90
9223;DHT22;7557;51.698;3.942;2023-05-25T10:58:16;16.90;99.90
9223;DHT22;7557;51.698;3.942;2023-05-25T11:00:56;16.90;99.90
9223;DHT22;7557;51.698;3.942;2023-05-25T11:03:49;17.00;99.90
9223;DHT22;7557;51.698;3.942;2023-05-25T11:06:18;17.00;99.90
9223;DHT22;7557;51.698;3.942;2023-05-25T11:08:52;16.80;99.90
9223;DHT22;7557;51.698;3.942;2023-05-25T11:12:03;16.70;99.90
9223;DHT22;7557;51.698;3.942;2023-05-25T11:14:33;16.80;99.90
9223;DHT22;7557;51.698;3.942;2023-05-25T11:17:04;16.80;99.90
9223;DHT22;7557;51.698;3.942;2023-05-25T11:19:42;16.90;99.90
9223;DHT22;7557;51.698;3.942;2023-05-25T11:22:14;17.00;99.90
9223;DHT22;7557;51.698;3.942;2023-05-25T11:24:42;17.00;99.90
9223;DHT22;7557;51.698;3.942;2023-05-25T11:27:12;17.10;99.90
9223;DHT22;7557;51.698;3.942;2023-05-25T11:29:40;17.00;99.90
9223;DHT22;7557;51.698;3.942;2023-05-25T11:32:12;16.90;99.90
9223;DHT22;7557;51.698;3.942;2023-05-25T11:34:41;16.80;99.90
9223;DHT22;7557;51.698;3.942;2023-05-25T11:37:11;16.70;99.90
9223;DHT22;7557;51.698;3.942;2023-05-25T11:39:41;16.70;99.90
9223;DHT22;7557;51.698;3.942;2023-05-25T11:42:09;16.60;99.90
9223;DHT22;7557;51.698;3.942;2023-05-25T11:44:40;16.70;99.90
9223;DHT22;7557;51.698;3.942;2023-05-25T11:47:09;16.80;99.90
9223;DHT22;7557;51.698;3.942;2023-05-25T11:49:39;16.80;99.90
9223;DHT22;7557;51.698;3.942;2023-05-25T11:52:11;16.70;99.90
9223;DHT22;7557;51.698;3.942;2023-05-25T11:54:39;16.60;99.90
9223;DHT22;7557;51.698;3.942;2023-05-25T11:57:14;16.60;99.90
9223;DHT22;7557;51.698;3.942;2023-05-25T11:59:48;16.70;99.90
9223;DHT22;7557;51.698;3.942;2023-05-25T12:02:16;16.80;99.90
9223;DHT22;7557;51.698;3.942;2023-05-25T12:04:52;16.90;99.90
9223;DHT22;7557;51.698;3.942;2023-05-25T12:07:20;17.00;99.90
9223;DHT22;7557;51.698;3.942;2023-05-25T12:09:48;16.90;99.90
9223;DHT22;7557;51.698;3.942;2023-05-25T12:12:15;16.80;99.90
9223;DHT22;7557;51.698;3.942;2023-05-25T12:14:48;16.70;99.90
9223;DHT22;7557;51.698;3.942;2023-05-25T12:17:18;16.60;99.90
9223;DHT22;7557;51.698;3.942;2023-05-25T12:19:47;16.70;99.90
9223;DHT22;7557;51.698;3.942;2023-05-25T12:22:14;16.80;99.90
9223;DHT22;7557;51.698;3.942;2023-05-25T12:24:42;16.80;99.90
9223;DHT22;7557;51.698;3.942;2023-05-25T12:27:16;16.90;99.90
9223;DHT22;7557;51.698;3.942;2023-05-25T12:29:47;16.90;99.90
9223;DHT22;7557;51.698;3.942;2023-05-25T12:32:14;16.90;99.90
9223;DHT22;7557;51.698;3.942;2023-05-25T12:34:42;17.00;99.90
9223;DHT22;7557;51.698;3.942;2023-05-25T12:37:17;17.00;99.90
9223;DHT22;7557;51.698;3.942;2023-05-25T12:39:45;17.00;99.90
9223;DHT22;7557;51.698;3.942;2023-05-25T12:42:13;17.00;99.90
9223;DHT22;7557;51.698;3.942;2023-05-25T12:44:43;17.10;99.90
9223;DHT22;7557;51.698;3.942;2023-05-25T12:47:14;17.10;99.90
9223;DHT22;7557;51.698;3.942;2023-05-25T12:49:45;17.20;99.90
9223;DHT22;7557;51.698;3.942;2023-05-25T12:52:31;17.40;99.90
9223;DHT22;7557;51.698;3.942;2023-05-25T12:55:07;17.30;99.90
9223;DHT22;7557;51.698;3.942;2023-05-25T12:57:44;17.30;99.90
9223;DHT22;7557;51.698;3.942;2023-05-25T13:00:21;17.20;99.90
9223;DHT22;7557;51.698;3.942;2023-05-25T13:02:50;17.20;99.90
9223;DHT22;7557;51.698;3.942;2023-05-25T13:05:19;17.20;99.90
9223;DHT22;7557;51.698;3.942;2023-05-25T13:07:47;17.30;99.90
9223;DHT22;7557;51.698;3.942;2023-05-25T13:10:15;17.40;99.90
9223;DHT22;7557;51.698;3.942;2023-05-25T13:12:43;17.50;99.90
9223;DHT22;7557;51.698;3.942;2023-05-25T13:15:12;17.50;99.90
9223;DHT22;7557;51.698;3.942;2023-05-25T13:17:41;17.40;99.90
9223;DHT22;7557;51.698;3.942;2023-05-25T13:20:11;17.30;99.90
9223;DHT22;7557;51.698;3.942;2023-05-25T13:22:39;17.30;99.90
9223;DHT22;7557;51.698;3.942;2023-05-25T13:25:09;17.40;99.90
9223;DHT22;7557;51.698;3.942;2023-05-25T13:27:37;17.40;99.90
9223;DHT22;7557;51.698;3.942;2023-05-25T13:30:07;17.50;99.90
9223;DHT22;7557;51.698;3.942;2023-05-25T13:32:36;17.70;99.90
9223;DHT22;7557;51.698;3.942;2023-05-25T13:35:04;17.80;99.90
9223;DHT22;7557;51.698;3.942;2023-05-25T13:37:34;17.90;99.90
9223;DHT22;7557;51.698;3.942;2023-05-25T13:40:02;17.90;99.90
9223;DHT22;7557;51.698;3.942;2023-05-25T13:42:30;18.00;99.90
9223;DHT22;7557;51.698;3.942;2023-05-25T13:44:58;18.00;99.90
9223;DHT22;7557;51.698;3.942;2023-05-25T13:47:26;18.00;99.90
9223;DHT22;7557;51.698;3.942;2023-05-25T13:49:54;17.90;99.90
9223;DHT22;7557;51.698;3.942;2023-05-25T13:52:21;18.00;99.90
9223;DHT22;7557;51.698;3.942;2023-05-25T13:54:50;18.00;99.90
9223;DHT22;7557;51.698;3.942;2023-05-25T13:57:18;18.00;99.90
9223;DHT22;7557;51.698;3.942;2023-05-25T13:59:46;18.10;99.90
9223;DHT22;7557;51.698;3.942;2023-05-25T14:02:13;18.20;99.90
9223;DHT22;7557;51.698;3.942;2023-05-25T14:04:41;18.20;99.90
9223;DHT22;7557;51.698;3.942;2023-05-25T14:07:08;18.20;99.90
9223;DHT22;7557;51.698;3.942;2023-05-25T14:09:37;18.00;99.90
9223;DHT22;7557;51.698;3.942;2023-05-25T14:12:06;17.80;99.90
9223;DHT22;7557;51.698;3.942;2023-05-25T14:14:34;17.50;99.90
9223;DHT22;7557;51.698;3.942;2023-05-25T14:17:02;17.50;99.90
9223;DHT22;7557;51.698;3.942;2023-05-25T14:19:30;17.60;99.90
9223;DHT22;7557;51.698;3.942;2023-05-25T14:21:58;17.70;99.90
9223;DHT22;7557;51.698;3.942;2023-05-25T14:24:26;17.70;99.90
9223;DHT22;7557;51.698;3.942;2023-05-25T14:26:53;17.80;99.90
9223;DHT22;7557;51.698;3.942;2023-05-25T14:29:23;18.00;99.90
9223;DHT22;7557;51.698;3.942;2023-05-25T14:31:50;17.90;99.90
9223;DHT22;7557;51.698;3.942;2023-05-25T14:34:18;17.80;99.90
9223;DHT22;7557;51.698;3.942;2023-05-25T14:36:46;17.80;99.90
9223;DHT22;7557;51.698;3.942;2023-05-25T14:39:13;17.80;99.90
9223;DHT22;7557;51.698;3.942;2023-05-25T14:41:41;17.80;99.90
9223;DHT22;7557;51.698;3.942;2023-05-25T14:44:08;17.80;99.90
9223;DHT22;7557;51.698;3.942;2023-05-25T14:46:38;17.80;99.90
9223;DHT22;7557;51.698;3.942;2023-05-25T14:49:06;17.90;99.90
9223;DHT22;7557;51.698;3.942;2023-05-25T14:51:33;18.00;99.90
9223;DHT22;7557;51.698;3.942;2023-05-25T14:54:01;17.90;99.90
9223;DHT22;7557;51.698;3.942;2023-05-25T14:56:31;17.90;99.90
9223;DHT22;7557;51.698;3.942;2023-05-25T14:58:58;17.80;99.90
9223;DHT22;7557;51.698;3.942;2023-05-25T15:01:26;17.70;99.90
9223;DHT22;7557;51.698;3.942;2023-05-25T15:03:55;17.50;99.90
9223;DHT22;7557;51.698;3.942;2023-05-25T15:06:23;17.40;99.90
9223;DHT22;7557;51.698;3.942;2023-05-25T15:08:53;17.30;99.90
9223;DHT22;7557;51.698;3.942;2023-05-25T15:11:21;17.30;99.90
9223;DHT22;7557;51.698;3.942;2023-05-25T15:13:48;17.20;99.90
9223;DHT22;7557;51.698;3.942;2023-05-25T15:16:16;17.20;99.90
9223;DHT22;7557;51.698;3.942;2023-05-25T15:18:44;17.10;99.90
9223;DHT22;7557;51.698;3.942;2023-05-25T15:21:13;17.10;99.90
9223;DHT22;7557;51.698;3.942;2023-05-25T15:23:41;17.20;99.90
9223;DHT22;7557;51.698;3.942;2023-05-25T15:26:08;17.10;99.90
9223;DHT22;7557;51.698;3.942;2023-05-25T15:28:36;17.10;99.90
9223;DHT22;7557;51.698;3.942;2023-05-25T15:31:04;17.10;99.90
9223;DHT22;7557;51.698;3.942;2023-05-25T15:33:32;17.10;99.90
9223;DHT22;7557;51.698;3.942;2023-05-25T15:36:00;17.10;99.90
9223;DHT22;7557;51.698;3.942;2023-05-25T15:38:29;17.20;99.90
9223;DHT22;7557;51.698;3.942;2023-05-25T15:40:56;17.30;99.90
9223;DHT22;7557;51.698;3.942;2023-05-25T15:43:24;17.30;99.90
9223;DHT22;7557;51.698;3.942;2023-05-25T15:45:51;17.30;99.90
9223;DHT22;7557;51.698;3.942;2023-05-25T15:48:19;17.20;99.90
9223;DHT22;7557;51.698;3.942;2023-05-25T15:50:46;17.10;99.90
9223;DHT22;7557;51.698;3.942;2023-05-25T15:53:14;17.10;99.90
9223;DHT22;7557;51.698;3.942;2023-05-25T15:55:43;17.10;99.90
9223;DHT22;7557;51.698;3.942;2023-05-25T15:58:11;17.10;99.90
9223;DHT22;7557;51.698;3.942;2023-05-25T16:00:38;17.20;99.90
9223;DHT22;7557;51.698;3.942;2023-05-25T16:03:06;17.10;99.90
9223;DHT22;7557;51.698;3.942;2023-05-25T16:05:34;17.00;99.90
9223;DHT22;7557;51.698;3.942;2023-05-25T16:08:01;17.00;99.90
9223;DHT22;7557;51.698;3.942;2023-05-25T16:10:29;16.90;99.90
9223;DHT22;7557;51.698;3.942;2023-05-25T16:12:58;16.80;99.90